Time;durP1;ratioP1;P1;durP2;ratioP2;P2;SDS_P1;SDS_P2;PMS_P1;PMS_P2;Temp;Humidity;BMP_temperature;BMP_pressure;BME280_temperature;BME280_humidity;BME280_pressure;Samples;Min_cycle;Max_cycle;Signal;HPM_P1;HPM_P2
2023/09/29 00:16:17;;;;;;;1999.90;999.90;;;;;;;15.89;100.00;101502.44;10459867;28;20044;-73
2023/09/29 00:21:20;;;;;;;1999.90;999.90;;;;;;;15.88;100.00;101509.50;10459982;28;20103;-73
2023/09/29 00:26:22;;;;;;;1999.90;999.90;;;;;;;15.80;100.00;101498.59;10459710;28;20123;-74
2023/09/29 00:31:25;;;;;;;1999.90;999.90;;;;;;;15.70;100.00;101497.53;10458614;28;20055;-73
2023/09/29 00:36:27;;;;;;;1999.90;999.90;;;;;;;15.64;100.00;101503.22;10440806;28;20118;-73
2023/09/29 00:41:29;;;;;;;1999.90;999.90;;;;;;;15.68;100.00;101515.25;10439705;28;20537;-73
2023/09/29 00:46:32;;;;;;;1999.90;999.90;;;;;;;15.78;100.00;101505.78;10458663;28;20128;-73
2023/09/29 00:51:35;;;;;;;1999.90;999.90;;;;;;;15.75;100.00;101491.03;10440106;28;20406;-73
2023/09/29 00:56:39;;;;;;;1999.90;999.90;;;;;;;15.88;100.00;101490.19;10458303;28;20065;-74
2023/09/29 01:01:41;;;;;;;1999.90;999.90;;;;;;;15.88;100.00;101479.63;10440539;28;20076;-73
2023/09/29 01:06:45;;;;;;;1999.90;999.90;;;;;;;15.98;100.00;101478.03;10457230;28;20048;-73
2023/09/29 01:11:49;;;;;;;1999.90;999.90;;;;;;;15.99;100.00;101482.38;10457102;28;20496;-73
2023/09/29 01:16:51;;;;;;;1999.90;999.90;;;;;;;16.14;100.00;101465.44;10457595;28;20132;-73
2023/09/29 01:21:54;;;;;;;1999.90;999.90;;;;;;;16.16;100.00;101474.09;10457355;28;20044;-73
2023/09/29 01:26:56;;;;;;;1999.90;999.90;;;;;;;16.09;100.00;101479.94;10456677;28;20477;-73
2023/09/29 01:31:58;;;;;;;1999.90;999.90;;;;;;;16.24;100.00;101478.00;10439561;28;20076;-73
2023/09/29 01:37:03;;;;;;;1999.90;999.90;;;;;;;16.12;100.00;101472.63;10439223;28;20053;-73
2023/09/29 01:42:07;;;;;;;1999.90;999.90;;;;;;;16.14;100.00;101461.97;10456501;28;20057;-73
2023/09/29 01:47:09;;;;;;;1999.90;999.90;;;;;;;16.26;100.00;101447.03;10456818;28;20077;-73
2023/09/29 01:52:12;;;;;;;1999.90;999.90;;;;;;;16.26;100.00;101444.41;10440170;28;20112;-74
2023/09/29 01:57:15;;;;;;;1999.90;999.90;;;;;;;16.37;100.00;101433.88;10470308;28;20106;-73
2023/09/29 02:02:17;;;;;;;1999.90;999.90;;;;;;;16.44;100.00;101424.59;10469539;28;20055;-73
2023/09/29 02:07:20;;;;;;;1999.90;999.90;;;;;;;16.43;100.00;101411.47;10452518;28;20045;-73
2023/09/29 02:12:22;;;;;;;1999.90;999.90;;;;;;;16.49;100.00;101417.16;10469554;28;20124;-73
2023/09/29 02:17:25;;;;;;;1999.90;999.90;;;;;;;16.51;100.00;101409.13;10451718;28;20482;-73
2023/09/29 02:22:27;;;;;;;1999.90;999.90;;;;;;;16.58;100.00;101410.34;10452152;28;20047;-73
2023/09/29 02:27:30;;;;;;;1999.90;999.90;;;;;;;16.56;100.00;101377.03;10469807;28;20056;-73
2023/09/29 02:32:34;;;;;;;1999.90;999.90;;;;;;;16.58;100.00;101380.44;10451572;28;20045;-74
2023/09/29 02:37:37;;;;;;;1999.90;999.90;;;;;;;16.55;100.00;101383.31;10469644;28;20063;-73
2023/09/29 02:42:40;;;;;;;1999.90;999.90;;;;;;;16.47;100.00;101381.22;10468722;28;20387;-73
2023/09/29 02:47:42;;;;;;;1999.90;999.90;;;;;;;16.58;100.00;101391.03;10469485;28;20045;-73
2023/09/29 02:52:45;;;;;;;1999.90;999.90;;;;;;;16.43;100.00;101393.81;10451765;28;20049;-73
2023/09/29 02:57:48;;;;;;;1999.90;999.90;;;;;;;16.43;100.00;101396.44;10450916;28;20605;-73
2023/09/29 03:02:54;;;;;;;1999.90;999.90;;;;;;;16.72;100.00;101373.16;10469123;28;20132;-74
2023/09/29 03:07:56;;;;;;;1999.90;999.90;;;;;;;16.56;100.00;101372.63;10461722;28;20098;-73
2023/09/29 03:12:59;;;;;;;1999.90;999.90;;;;;;;16.67;100.00;101355.97;10444266;28;20052;-73
2023/09/29 03:18:01;;;;;;;1999.90;999.90;;;;;;;16.70;100.00;101358.38;10462100;28;20064;-73
2023/09/29 03:23:04;;;;;;;1999.90;999.90;;;;;;;16.61;100.00;101353.75;10461314;28;20548;-73
2023/09/29 03:28:07;;;;;;;1999.90;999.90;;;;;;;16.69;100.00;101351.38;10461846;28;20475;-73
2023/09/29 03:33:10;;;;;;;1999.90;999.90;;;;;;;16.72;100.00;101340.59;10461012;28;20574;-73
2023/09/29 03:38:14;;;;;;;1999.90;999.90;;;;;;;16.69;100.00;101348.75;10461454;28;20076;-73
2023/09/29 03:43:17;;;;;;;1999.90;999.90;;;;;;;16.61;100.00;101329.97;10426639;28;20091;-73
2023/09/29 03:48:19;;;;;;;1999.90;999.90;;;;;;;16.75;100.00;101319.22;10443477;28;20052;-73
2023/09/29 03:53:22;;;;;;;1999.90;999.90;;;;;;;16.75;100.00;101316.56;10442651;28;20408;-73
2023/09/29 03:58:24;;;;;;;1999.90;999.90;;;;;;;16.61;100.00;101304.41;10442427;28;20504;-73
2023/09/29 04:03:27;;;;;;;1999.90;999.90;;;;;;;16.84;100.00;101310.59;10460440;28;20128;-73
2023/09/29 04:08:29;;;;;;;1999.90;999.90;;;;;;;16.77;100.00;101309.34;10460347;28;20060;-73
2023/09/29 04:13:32;;;;;;;1999.90;999.90;;;;;;;16.78;100.00;101303.13;10460050;28;20099;-73
2023/09/29 04:18:35;;;;;;;1999.90;999.90;;;;;;;16.76;100.00;101298.91;10459741;28;20044;-72
2023/09/29 04:23:38;;;;;;;1999.90;999.90;;;;;;;16.67;100.00;101288.06;10458993;28;20045;-73
2023/09/29 04:28:40;;;;;;;1999.90;999.90;;;;;;;16.82;100.00;101288.69;10459480;28;20056;-73
2023/09/29 04:33:43;;;;;;;1999.90;999.90;;;;;;;16.79;100.00;101290.72;10425422;28;20068;-73
2023/09/29 04:38:45;;;;;;;1999.90;999.90;;;;;;;16.88;100.00;101284.78;10458479;28;20052;-73
2023/09/29 04:43:48;;;;;;;1999.90;999.90;;;;;;;16.91;100.00;101281.88;10458371;28;20124;-73
2023/09/29 04:48:53;;;;;;;1999.90;999.90;;;;;;;16.91;100.00;101273.97;10458809;28;20055;-73
2023/09/29 04:53:56;;;;;;;1999.90;999.90;;;;;;;16.91;100.00;101271.31;10458536;28;20041;-73
2023/09/29 04:58:58;;;;;;;1999.90;999.90;;;;;;;16.88;100.00;101277.69;10440895;28;20044;-73
2023/09/29 05:04:01;;;;;;;1999.90;999.90;;;;;;;16.84;100.00;101262.13;10457414;28;20410;-73
2023/09/29 05:09:03;;;;;;;1999.90;999.90;;;;;;;16.94;100.00;101268.44;10457325;28;20405;-73
2023/09/29 05:14:06;;;;;;;1999.90;999.90;;;;;;;16.84;100.00;101264.78;10440083;28;20049;-73
2023/09/29 05:19:10;;;;;;;1999.90;999.90;;;;;;;16.93;100.00;101263.25;10440598;28;20053;-73
2023/09/29 05:24:12;;;;;;;1999.90;999.90;;;;;;;16.84;100.00;101263.00;10456696;28;20107;-74
2023/09/29 05:29:14;;;;;;;1999.90;999.90;;;;;;;16.86;100.00;101266.41;10456829;28;20090;-73
2023/09/29 05:34:18;;;;;;;1999.90;999.90;;;;;;;16.94;100.00;101254.38;10456506;28;20397;-73
2023/09/29 05:39:20;;;;;;;1999.90;999.90;;;;;;;16.96;100.00;101263.88;10456979;28;20053;-74
2023/09/29 05:44:22;;;;;;;1999.90;999.90;;;;;;;16.90;100.00;101261.72;10438742;28;20528;-74
2023/09/29 05:49:25;;;;;;;1999.90;999.90;;;;;;;16.99;100.00;101268.91;10439703;28;20083;-73
2023/09/29 05:54:27;;;;;;;1999.90;999.90;;;;;;;16.96;100.00;101265.69;10456095;28;20506;-73
2023/09/29 05:59:29;;;;;;;1999.90;999.90;;;;;;;17.12;100.00;101265.34;10456622;28;20057;-73
2023/09/29 06:04:32;;;;;;;1999.90;999.90;;;;;;;17.15;100.00;101257.19;10438141;28;20542;-73
2023/09/29 06:09:34;;;;;;;1999.90;999.90;;;;;;;17.11;100.00;101255.72;10438842;28;20092;-73
2023/09/29 06:14:37;;;;;;;1999.90;999.90;;;;;;;17.21;100.00;101254.03;10456190;28;20539;-74
2023/09/29 06:19:41;;;;;;;1999.90;999.90;;;;;;;17.31;100.00;101247.06;10456196;28;20107;-73
2023/09/29 06:24:44;;;;;;;1999.90;999.90;;;;;;;17.41;100.00;101250.66;10438835;28;20044;-73
2023/09/29 06:29:50;;;;;;;1999.90;999.90;;;;;;;17.59;100.00;101252.81;10437730;28;20517;-73
2023/09/29 06:34:52;;;;;;;1999.90;999.90;;;;;;;17.64;100.00;101250.63;10455317;28;20482;-73
2023/09/29 06:39:55;;;;;;;1999.90;999.90;;;;;;;17.85;100.00;101247.22;10440004;28;20049;-73
2023/09/29 06:44:57;;;;;;;1999.90;999.90;;;;;;;17.78;100.00;101254.81;10445515;28;20474;-73
2023/09/29 06:50:00;;;;;;;1999.90;999.90;;;;;;;17.75;100.00;101261.22;10462790;28;20049;-73
2023/09/29 06:55:03;;;;;;;1999.90;999.90;;;;;;;17.94;100.00;101265.06;10444899;28;20056;-74
2023/09/29 07:00:08;;;;;;;1999.90;999.90;;;;;;;17.99;100.00;101258.41;10463408;28;20052;-73
2023/09/29 07:05:11;;;;;;;1999.90;999.90;;;;;;;18.00;100.00;101268.06;10445352;28;20049;-73
2023/09/29 07:10:14;;;;;;;1999.90;999.90;;;;;;;17.95;100.00;101264.06;10445022;28;20132;-73
2023/09/29 07:15:16;;;;;;;1999.90;999.90;;;;;;;17.88;100.00;101265.56;10444096;28;20532;-72
2023/09/29 07:20:18;;;;;;;1999.90;999.90;;;;;;;18.09;100.00;101262.94;10428248;28;20099;-71
2023/09/29 07:25:22;;;;;;;1999.90;999.90;;;;;;;18.08;100.00;101272.72;10461959;28;20052;-73
2023/09/29 07:30:25;;;;;;;1999.90;999.90;;;;;;;17.98;100.00;101272.63;10461835;28;20045;-73
2023/09/29 07:35:28;;;;;;;1999.90;999.90;;;;;;;18.13;100.00;101278.47;10427658;28;20045;-72
2023/09/29 07:40:33;;;;;;;1999.90;999.90;;;;;;;18.35;100.00;101282.84;10460626;28;20052;-73
2023/09/29 07:45:36;;;;;;;1999.90;999.90;;;;;;;18.71;100.00;101283.41;10460539;28;20478;-73
2023/09/29 07:50:38;;;;;;;1999.90;999.90;;;;;;;18.60;100.00;101278.16;10460524;28;20048;-70
2023/09/29 07:55:41;;;;;;;1999.90;999.90;;;;;;;18.86;100.00;101270.69;10460826;28;20048;-70
2023/09/29 08:00:43;;;;;;;1999.90;999.90;;;;;;;19.21;100.00;101282.72;10460640;28;20086;-70
2023/09/29 08:05:46;;;;;;;1999.90;999.90;;;;;;;19.14;100.00;101284.25;10460657;28;20072;-71
2023/09/29 08:10:48;;;;;;;1999.90;999.90;;;;;;;19.40;100.00;101268.72;10460205;28;20080;-71
2023/09/29 08:15:51;;;;;;;1999.90;999.90;;;;;;;19.51;100.00;101267.75;10459870;28;20073;-74
2023/09/29 08:20:53;;;;;;;1999.90;999.90;;;;;;;19.67;100.00;101269.94;10441563;28;20045;-74
2023/09/29 08:25:56;;;;;;;1999.90;999.90;;;;;;;20.02;100.00;101268.59;10458997;28;20486;-73
2023/09/29 08:30:58;;;;;;;1999.90;999.90;;;;;;;20.25;100.00;101266.53;10458647;28;20384;-73
2023/09/29 08:36:02;;;;;;;1999.90;999.90;;;;;;;20.63;100.00;101261.34;10440990;28;20056;-73
2023/09/29 08:41:05;;;;;;;1999.90;999.90;;;;;;;22.18;98.01;101266.97;10458711;28;20391;-73
2023/09/29 08:46:09;;;;;;;1999.90;999.90;;;;;;;22.32;91.14;101265.59;10440320;28;20556;-72
2023/09/29 08:51:13;;;;;;;1999.90;999.90;;;;;;;23.06;90.51;101271.47;10441289;28;20061;-73
2023/09/29 08:56:16;;;;;;;1999.90;999.90;;;;;;;23.52;87.08;101282.75;10440764;28;20051;-74
2023/09/29 09:01:19;;;;;;;1999.90;999.90;;;;;;;23.15;84.93;101281.25;10423984;28;20102;-74
2023/09/29 09:06:25;;;;;;;1999.90;999.90;;;;;;;23.80;86.40;101285.97;10439865;28;20508;-74
2023/09/29 09:11:28;;;;;;;1999.90;999.90;;;;;;;23.64;85.85;101285.94;10440288;28;20059;-73
2023/09/29 09:16:32;;;;;;;1999.90;999.90;;;;;;;24.20;83.01;101273.72;10457801;28;20060;-74
2023/09/29 09:21:35;;;;;;;1999.90;999.90;;;;;;;22.52;87.11;101288.44;10456849;28;20524;-74
2023/09/29 09:26:37;;;;;;;1999.90;999.90;;;;;;;22.37;89.80;101301.47;10457472;28;20057;-74
2023/09/29 09:31:47;;;;;;;1999.90;999.90;;;;;;;22.04;93.61;101316.28;10457440;28;20072;-74
2023/09/29 09:36:52;;;;;;;1999.90;999.90;;;;;;;21.99;89.75;101313.25;10438924;28;20413;-74
2023/09/29 09:41:59;;;;;;;1999.90;999.90;;;;;;;22.47;90.52;101320.09;10462940;28;20049;-74
2023/09/29 09:47:03;;;;;;;1999.90;999.90;;;;;;;22.69;85.47;101317.94;10480426;28;20056;-73
2023/09/29 09:52:08;;;;;;;1999.90;999.90;;;;;;;23.19;86.57;101311.97;10480574;28;20548;-74
2023/09/29 09:57:13;;;;;;;1999.90;999.90;;;;;;;22.96;86.96;101316.94;10433453;22;20055;-73
2023/09/29 10:02:16;;;;;;;1999.90;999.90;;;;;;;22.43;86.06;101334.72;10397682;28;20449;-72
2023/09/29 10:07:20;;;;;;;1999.90;999.90;;;;;;;24.58;79.65;101327.63;10413593;28;20505;-73
2023/09/29 10:12:24;;;;;;;1999.90;999.90;;;;;;;22.73;85.51;101337.97;10398104;28;20124;-72
2023/09/29 10:17:39;;;;;;;1999.90;999.90;;;;;;;22.44;88.18;101339.91;10404856;28;20383;-73
2023/09/29 10:22:43;;;;;;;1999.90;999.90;;;;;;;22.30;88.97;101348.44;10422676;28;20414;-71
2023/09/29 10:27:49;;;;;;;1999.90;999.90;;;;;;;22.28;93.72;101363.75;10422488;28;20482;-72
2023/09/29 10:33:06;;;;;;;1999.90;999.90;;;;;;;22.87;89.99;101368.63;10405912;28;20124;-72
2023/09/29 10:38:12;;;;;;;1999.90;999.90;;;;;;;22.28;94.35;101366.44;10422740;28;20049;-71
2023/09/29 10:43:23;;;;;;;1999.90;999.90;;;;;;;22.12;93.81;101376.88;10420770;28;20048;-72
2023/09/29 10:48:27;;;;;;;1999.90;999.90;;;;;;;22.38;93.35;101382.38;10421261;28;20049;-72
2023/09/29 10:53:36;;;;;;;1999.90;999.90;;;;;;;21.75;96.98;101383.09;10422189;28;20050;-71
2023/09/29 10:58:38;;;;;;;1999.90;999.90;;;;;;;21.82;96.24;101382.38;10420052;28;20057;-71
2023/09/29 11:03:41;;;;;;;1999.90;999.90;;;;;;;21.63;99.47;101393.09;10421649;28;20099;-71
2023/09/29 11:08:54;;;;;;;1999.90;999.90;;;;;;;21.54;100.00;101388.66;10420279;28;20137;-72
2023/09/29 11:13:57;;;;;;;1999.90;999.90;;;;;;;21.51;100.00;101397.78;10420239;28;20045;-72
2023/09/29 11:19:14;;;;;;;1999.90;999.90;;;;;;;21.32;100.00;101395.97;10420032;28;20057;-71
2023/09/29 11:24:19;;;;;;;1999.90;999.90;;;;;;;21.59;100.00;101403.22;10421008;28;20046;-72
2023/09/29 11:29:27;;;;;;;1999.90;999.90;;;;;;;21.65;100.00;101404.47;10420171;28;20057;-72
2023/09/29 11:34:31;;;;;;;1999.90;999.90;;;;;;;22.25;100.00;101406.69;10418904;28;20521;-72
2023/09/29 11:39:34;;;;;;;1999.90;999.90;;;;;;;22.42;98.19;101407.75;10419792;28;20406;-72
2023/09/29 11:44:36;;;;;;;1999.90;999.90;;;;;;;22.65;92.62;101408.13;10418294;28;20080;-71
2023/09/29 11:49:39;;;;;;;1999.90;999.90;;;;;;;23.12;92.73;101399.88;10401847;28;20089;-72
2023/09/29 11:54:41;;;;;;;1999.90;999.90;;;;;;;23.48;86.91;101397.09;10419559;28;20091;-72
2023/09/29 11:59:44;;;;;;;1999.90;999.90;;;;;;;24.25;85.30;101399.78;10417783;28;20489;-72
2023/09/29 12:04:46;;;;;;;1999.90;999.90;;;;;;;23.71;87.33;101394.72;10419304;28;20051;-72
2023/09/29 12:09:48;;;;;;;1999.90;999.90;;;;;;;22.84;87.69;101401.78;10419142;28;20049;-72
2023/09/29 12:14:52;;;;;;;1999.90;999.90;;;;;;;22.35;90.11;101412.00;10418361;28;20045;-72
2023/09/29 12:19:55;;;;;;;1999.90;999.90;;;;;;;22.27;93.16;101423.38;10418771;28;20053;-72
2023/09/29 12:24:57;;;;;;;1999.90;999.90;;;;;;;21.56;100.00;101426.66;10418497;28;20128;-71
2023/09/29 12:30:00;;;;;;;1999.90;999.90;;;;;;;21.54;100.00;101431.28;10418237;28;20049;-73
2023/09/29 12:35:04;;;;;;;1999.90;999.90;;;;;;;21.10;100.00;101453.06;10416776;28;20126;-71
2023/09/29 12:40:09;;;;;;;1999.90;999.90;;;;;;;20.92;100.00;101476.88;10416783;28;20052;-71
2023/09/29 12:45:11;;;;;;;1999.90;999.90;;;;;;;20.42;100.00;101494.53;10416511;28;20111;-70
2023/09/29 12:50:15;;;;;;;1999.90;999.90;;;;;;;19.85;100.00;101518.06;10416914;28;20075;-71
2023/09/29 12:55:18;;;;;;;1999.90;999.90;;;;;;;20.14;100.00;101525.34;10417285;28;20052;-71
2023/09/29 13:00:22;;;;;;;1999.90;999.90;;;;;;;20.15;100.00;101531.50;10416555;28;20505;-72
2023/09/29 13:05:25;;;;;;;1999.90;999.90;;;;;;;20.14;100.00;101557.25;10415778;28;20053;-72
2023/09/29 13:10:27;;;;;;;1999.90;999.90;;;;;;;19.63;100.00;101568.63;10416147;28;20481;-72
2023/09/29 13:15:31;;;;;;;1999.90;999.90;;;;;;;19.27;100.00;101592.81;10415912;28;20069;-71
2023/09/29 13:20:34;;;;;;;1999.90;999.90;;;;;;;19.19;100.00;101599.72;10416936;28;20055;-71
2023/09/29 13:25:37;;;;;;;1999.90;999.90;;;;;;;18.78;100.00;101599.41;10415191;28;20049;-71
2023/09/29 13:30:39;;;;;;;1999.90;999.90;;;;;;;19.15;100.00;101630.09;10416650;28;20084;-71
2023/09/29 13:35:55;;;;;;;1999.90;999.90;;;;;;;18.56;100.00;101624.13;10415371;28;20478;-70
2023/09/29 13:40:58;;;;;;;1999.90;999.90;;;;;;;18.67;100.00;101647.13;10415963;28;20140;-71
2023/09/29 13:46:03;;;;;;;1999.90;999.90;;;;;;;18.23;100.00;101675.28;10414570;28;20075;-71
2023/09/29 13:51:06;;;;;;;1999.90;999.90;;;;;;;18.26;100.00;101683.84;10415355;28;20057;-71
2023/09/29 13:56:09;;;;;;;1999.90;999.90;;;;;;;18.35;100.00;101679.63;10397898;28;20137;-71
2023/09/29 14:01:13;;;;;;;1999.90;999.90;;;;;;;18.82;100.00;101677.75;10414811;28;20089;-71
2023/09/29 14:06:18;;;;;;;1999.90;999.90;;;;;;;19.41;100.00;101681.13;10415449;28;20129;-71
2023/09/29 14:11:21;;;;;;;1999.90;999.90;;;;;;;20.07;100.00;101683.66;10415261;28;20080;-72
2023/09/29 14:16:23;;;;;;;1999.90;999.90;;;;;;;19.56;100.00;101697.63;10415148;28;20061;-72
2023/09/29 14:21:25;;;;;;;1999.90;999.90;;;;;;;19.22;100.00;101706.50;10415049;28;20124;-72
2023/09/29 14:26:28;;;;;;;1999.90;999.90;;;;;;;19.20;100.00;101723.50;10414292;28;20085;-72
2023/09/29 14:31:30;;;;;;;1999.90;999.90;;;;;;;18.79;100.00;101728.41;10414325;28;20132;-72
2023/09/29 14:36:32;;;;;;;1999.90;999.90;;;;;;;18.63;100.00;101739.34;10413468;28;20536;-72
2023/09/29 14:41:37;;;;;;;1999.90;999.90;;;;;;;18.34;100.00;101744.22;10397327;28;20065;-72
2023/09/29 14:46:39;;;;;;;1999.90;999.90;;;;;;;18.40;100.00;101751.72;10412798;28;20402;-72
2023/09/29 14:51:42;;;;;;;1999.90;999.90;;;;;;;18.40;100.00;101754.38;10413549;28;20132;-72
2023/09/29 14:56:44;;;;;;;1999.90;999.90;;;;;;;18.52;100.00;101758.72;10412997;28;20053;-73
2023/09/29 15:01:47;;;;;;;1999.90;999.90;;;;;;;18.17;100.00;101770.19;10416640;28;20128;-72
2023/09/29 15:06:50;;;;;;;1999.90;999.90;;;;;;;18.50;100.00;101773.91;10421294;28;20425;-72
2023/09/29 15:11:53;;;;;;;1999.90;999.90;;;;;;;18.47;100.00;101783.91;10419748;28;20451;-73
2023/09/29 15:16:55;;;;;;;1999.90;999.90;;;;;;;19.75;96.18;101782.00;10421145;28;20081;-73
2023/09/29 15:21:57;;;;;;;1999.90;999.90;;;;;;;18.43;100.00;101793.06;10421130;28;20084;-71
2023/09/29 15:27:00;;;;;;;1999.90;999.90;;;;;;;18.14;100.00;101809.31;10420768;28;20052;-69
2023/09/29 15:32:02;;;;;;;1999.90;999.90;;;;;;;18.28;100.00;101814.44;10420746;28;20053;-73
2023/09/29 15:37:05;;;;;;;1999.90;999.90;;;;;;;18.18;100.00;101827.53;10402950;28;20057;-72
2023/09/29 15:42:09;;;;;;;1999.90;999.90;;;;;;;18.10;99.34;101831.69;10420161;28;20077;-73
2023/09/29 15:47:12;;;;;;;1999.90;999.90;;;;;;;19.00;94.30;101845.34;10419401;28;20041;-73
2023/09/29 15:52:15;;;;;;;1999.90;999.90;;;;;;;19.22;88.45;101847.19;10420386;28;20057;-73
2023/09/29 15:57:17;;;;;;;1999.90;999.90;;;;;;;18.06;97.20;101859.41;10419354;28;20057;-73
2023/09/29 16:02:20;;;;;;;1999.90;999.90;;;;;;;17.89;100.00;101871.22;10418849;28;20509;-73
2023/09/29 16:07:29;;;;;;;1999.90;999.90;;;;;;;17.81;100.00;101892.91;10417638;28;20046;-73
2023/09/29 16:12:32;;;;;;;1999.90;999.90;;;;;;;18.04;100.00;101901.91;10418163;28;20486;-72
2023/09/29 16:17:34;;;;;;;1999.90;999.90;;;;;;;17.80;100.00;101904.44;10418318;28;20532;-71
2023/09/29 16:22:37;;;;;;;1999.90;999.90;;;;;;;17.91;100.00;101919.63;10418641;28;20100;-72
2023/09/29 16:27:40;;;;;;;1999.90;999.90;;;;;;;17.54;100.00;101932.75;10417934;28;20387;-73
2023/09/29 16:32:42;;;;;;;1999.90;999.90;;;;;;;17.32;100.00;101936.03;10417065;28;20064;-73
2023/09/29 16:37:45;;;;;;;1999.90;999.90;;;;;;;17.18;100.00;101940.47;10417381;28;20050;-73
2023/09/29 16:42:47;;;;;;;1999.90;999.90;;;;;;;17.23;100.00;101948.94;10416194;28;20052;-73
2023/09/29 16:47:50;;;;;;;1999.90;999.90;;;;;;;17.13;100.00;101955.78;10400319;28;20056;-73
2023/09/29 16:52:53;;;;;;;1999.90;999.90;;;;;;;16.98;100.00;101970.00;10417540;28;20183;-73
2023/09/29 16:57:55;;;;;;;1999.90;999.90;;;;;;;16.80;100.00;101980.84;10416485;28;20422;-73
2023/09/29 17:02:58;;;;;;;1999.90;999.90;;;;;;;16.71;100.00;101992.03;10417101;28;20049;-72
2023/09/29 17:08:00;;;;;;;1999.90;999.90;;;;;;;16.58;100.00;102006.97;10416983;28;20107;-73
2023/09/29 17:13:03;;;;;;;1999.90;999.90;;;;;;;16.15;100.00;102011.38;10416111;28;20549;-73
2023/09/29 17:18:06;;;;;;;1999.90;999.90;;;;;;;16.32;100.00;102012.97;10415956;28;20056;-73
2023/09/29 17:23:09;;;;;;;1999.90;999.90;;;;;;;16.17;100.00;102037.66;10414820;28;20091;-73
2023/09/29 17:28:15;;;;;;;1999.90;999.90;;;;;;;15.99;99.66;102042.28;10415615;28;20383;-73
2023/09/29 17:33:18;;;;;;;1999.90;999.90;;;;;;;15.75;100.00;102065.69;10416237;28;20120;-73
2023/09/29 17:38:21;;;;;;;1999.90;999.90;;;;;;;15.64;100.00;102082.19;10414374;28;20438;-73
2023/09/29 17:43:23;;;;;;;1999.90;999.90;;;;;;;15.47;100.00;102093.72;10415795;28;20045;-72
2023/09/29 17:48:26;;;;;;;1999.90;999.90;;;;;;;15.63;100.00;102109.50;10414165;28;20050;-72
2023/09/29 17:53:45;;;;;;;1999.90;999.90;;;;;;;15.42;100.00;102117.72;10415042;28;20478;-73
2023/09/29 17:58:47;;;;;;;1999.90;999.90;;;;;;;15.05;100.00;102145.31;10413750;28;20103;-73
2023/09/29 18:03:50;;;;;;;1999.90;999.90;;;;;;;15.20;100.00;102139.19;10415386;28;20104;-73
2023/09/29 18:08:52;;;;;;;1999.90;999.90;;;;;;;15.05;100.00;102153.22;10414957;28;20421;-72
2023/09/29 18:13:56;;;;;;;1999.90;999.90;;;;;;;15.08;100.00;102158.34;10397315;28;20069;-72
2023/09/29 18:18:59;;;;;;;1999.90;999.90;;;;;;;14.90;100.00;102161.97;10413757;28;20487;-71
2023/09/29 18:24:05;;;;;;;1999.90;999.90;;;;;;;14.97;100.00;102166.81;10413796;28;20050;-72
2023/09/29 18:29:08;;;;;;;1999.90;999.90;;;;;;;14.67;100.00;102180.69;10397530;28;20153;-73
2023/09/29 18:34:11;;;;;;;1999.90;999.90;;;;;;;14.77;100.00;102190.78;10414854;28;20054;-72
2023/09/29 18:39:14;;;;;;;1999.90;999.90;;;;;;;14.44;100.00;102191.56;10422945;28;20173;-72
2023/09/29 18:44:17;;;;;;;1999.90;999.90;;;;;;;14.44;100.00;102204.72;10421370;28;20133;-72
2023/09/29 18:49:19;;;;;;;1999.90;999.90;;;;;;;14.47;100.00;102213.38;10405172;28;20053;-72
2023/09/29 18:54:21;;;;;;;1999.90;999.90;;;;;;;14.20;100.00;102218.22;10404823;28;20099;-72
2023/09/29 18:59:24;;;;;;;1999.90;999.90;;;;;;;14.41;100.00;102239.16;10422143;28;20116;-72
2023/09/29 19:04:27;;;;;;;1999.90;999.90;;;;;;;14.18;100.00;102238.53;10421731;28;20077;-72
2023/09/29 19:09:29;;;;;;;1999.90;999.90;;;;;;;14.07;100.00;102235.56;10420480;28;20141;-72
2023/09/29 19:14:32;;;;;;;1999.90;999.90;;;;;;;14.18;100.00;102248.22;10419509;28;20498;-72
2023/09/29 19:19:34;;;;;;;1999.90;999.90;;;;;;;13.98;100.00;102241.28;10420629;28;20049;-72
2023/09/29 19:24:36;;;;;;;1999.90;999.90;;;;;;;13.85;100.00;102249.81;10420319;28;20077;-73
2023/09/29 19:29:39;;;;;;;1999.90;999.90;;;;;;;13.95;100.00;102260.72;10419711;28;20049;-72
2023/09/29 19:34:41;;;;;;;1999.90;999.90;;;;;;;13.77;100.00;102259.84;10419505;28;20052;-72
2023/09/29 19:39:44;;;;;;;1999.90;999.90;;;;;;;13.85;100.00;102262.97;10420442;28;20060;-72
2023/09/29 19:44:46;;;;;;;1999.90;999.90;;;;;;;13.86;100.00;102255.91;10418420;28;20056;-72
2023/09/29 19:49:49;;;;;;;1999.90;999.90;;;;;;;13.77;100.00;102251.94;10418157;28;20050;-72
2023/09/29 19:54:51;;;;;;;1999.90;999.90;;;;;;;13.67;100.00;102269.94;10417983;28;20081;-72
2023/09/29 19:59:54;;;;;;;1999.90;999.90;;;;;;;13.55;100.00;102274.00;10401562;28;20075;-72
2023/09/29 20:04:56;;;;;;;1999.90;999.90;;;;;;;13.62;100.00;102282.47;10417642;28;20053;-72
2023/09/29 20:09:59;;;;;;;1999.90;999.90;;;;;;;13.41;100.00;102284.28;10419339;28;20050;-72
2023/09/29 20:15:01;;;;;;;1999.90;999.90;;;;;;;13.35;100.00;102292.50;10418434;28;20045;-70
2023/09/29 20:20:04;;;;;;;1999.90;999.90;;;;;;;13.57;100.00;102295.84;10417751;28;20092;-71
2023/09/29 20:25:07;;;;;;;1999.90;999.90;;;;;;;13.60;100.00;102315.91;10417473;28;20077;-71
2023/09/29 20:30:09;;;;;;;1999.90;999.90;;;;;;;13.30;100.00;102323.38;10417861;28;20055;-72
2023/09/29 20:35:12;;;;;;;1999.90;999.90;;;;;;;13.43;100.00;102326.31;10417093;28;20041;-72
2023/09/29 20:40:15;;;;;;;1999.90;999.90;;;;;;;13.49;100.00;102337.44;10417465;28;20406;-71
2023/09/29 20:45:19;;;;;;;1999.90;999.90;;;;;;;13.37;100.00;102333.56;10416018;28;20049;-72
2023/09/29 20:50:21;;;;;;;1999.90;999.90;;;;;;;13.13;100.00;102330.22;10417714;28;20053;-72
2023/09/29 20:55:24;;;;;;;1999.90;999.90;;;;;;;13.28;100.00;102336.59;10417193;28;20057;-71
2023/09/29 21:00:26;;;;;;;1999.90;999.90;;;;;;;12.98;100.00;102344.88;10398203;28;20136;-72
2023/09/29 21:05:30;;;;;;;1999.90;999.90;;;;;;;13.34;100.00;102324.97;10416208;28;20133;-71
2023/09/29 21:10:32;;;;;;;1999.90;999.90;;;;;;;13.19;100.00;102339.63;10398752;28;20053;-71
2023/09/29 21:15:34;;;;;;;1999.90;999.90;;;;;;;13.15;100.00;102330.16;10414897;28;20128;-71
2023/09/29 21:20:37;;;;;;;1999.90;999.90;;;;;;;13.10;100.00;102332.16;10415437;28;20060;-71
2023/09/29 21:25:42;;;;;;;1999.90;999.90;;;;;;;13.16;100.00;102343.25;10415450;28;20049;-71
2023/09/29 21:30:44;;;;;;;1999.90;999.90;;;;;;;13.05;100.00;102342.00;10399210;28;20049;-71
2023/09/29 21:35:47;;;;;;;1999.90;999.90;;;;;;;12.86;100.00;102353.31;10415868;28;20050;-71
2023/09/29 21:40:49;;;;;;;1999.90;999.90;;;;;;;13.11;100.00;102341.72;10415982;28;20050;-71
2023/09/29 21:45:51;;;;;;;1999.90;999.90;;;;;;;13.23;100.00;102351.72;10415777;28;20049;-71
2023/09/29 21:50:54;;;;;;;1999.90;999.90;;;;;;;13.14;100.00;102352.94;10415744;28;20056;-71
2023/09/29 21:55:56;;;;;;;1999.90;999.90;;;;;;;13.14;100.00;102360.00;10413865;28;20057;-71
2023/09/29 22:00:59;;;;;;;1999.90;999.90;;;;;;;13.28;100.00;102377.81;10414350;28;20049;-71